createdAt,value
2022-11-05T00:02:07.298Z,13.82
2022-11-05T00:04:33.812Z,13.23
2022-11-05T00:07:05.418Z,13.20
2022-11-05T00:09:33.474Z,14.23
2022-11-05T00:12:03.455Z,12.82
2022-11-05T00:14:30.146Z,11.30
2022-11-05T00:16:56.682Z,12.98
2022-11-05T00:19:24.702Z,10.60
2022-11-05T00:21:51.190Z,12.27
2022-11-05T00:24:23.225Z,13.93
2022-11-05T00:26:50.827Z,12.13
2022-11-05T00:29:17.311Z,16.55
2022-11-05T00:31:43.973Z,13.52
2022-11-05T00:34:10.490Z,11.57
2022-11-05T00:36:38.485Z,13.27
2022-11-05T00:39:05.966Z,11.85
2022-11-05T00:41:32.494Z,13.25
2022-11-05T00:43:59.085Z,11.68
2022-11-05T00:46:25.605Z,13.17
2022-11-05T00:48:52.103Z,9.85
2022-11-05T00:51:18.862Z,9.60
2022-11-05T00:53:46.815Z,9.75
2022-11-05T00:56:13.673Z,10.02
2022-11-05T00:58:40.267Z,9.57
2022-11-05T01:01:06.949Z,10.82
2022-11-05T01:03:35.550Z,11.25
2022-11-05T01:06:08.304Z,10.30
2022-11-05T01:08:35.093Z,10.30
2022-11-05T01:11:09.236Z,9.90
2022-11-05T01:13:35.806Z,10.20
2022-11-05T01:16:06.683Z,10.40
2022-11-05T01:18:33.368Z,11.02
2022-11-05T01:20:59.936Z,11.07
2022-11-05T01:23:26.483Z,10.67
2022-11-05T01:25:53.147Z,9.57
2022-11-05T01:28:21.065Z,11.88
2022-11-05T01:30:55.426Z,10.43
2022-11-05T01:33:21.965Z,10.82
2022-11-05T01:35:48.486Z,10.77
2022-11-05T01:38:15.144Z,10.90
2022-11-05T01:40:43.083Z,10.90
2022-11-05T01:43:16.363Z,11.52
2022-11-05T01:45:45.888Z,9.70
2022-11-05T01:48:17.038Z,11.33
2022-11-05T01:50:49.211Z,9.60
2022-11-05T01:53:21.727Z,9.63
2022-11-05T01:55:53.351Z,10.43
2022-11-05T01:58:24.593Z,11.07
2022-11-05T02:00:53.758Z,8.97
2022-11-05T02:03:20.981Z,10.75
2022-11-05T02:05:50.450Z,10.73
2022-11-05T02:08:27.324Z,9.30
2022-11-05T02:10:54.451Z,8.85
2022-11-05T02:13:20.968Z,11.27
2022-11-05T02:16:01.185Z,10.25
2022-11-05T02:18:40.395Z,8.80
2022-11-05T02:21:37.144Z,8.98
2022-11-05T02:24:25.142Z,9.30
2022-11-05T02:27:14.984Z,10.07
2022-11-05T02:30:03.245Z,10.63
2022-11-05T02:33:04.198Z,9.20
2022-11-05T02:35:55.921Z,12.27
2022-11-05T02:38:35.661Z,11.25
2022-11-05T02:41:08.656Z,10.43
2022-11-05T02:43:47.712Z,13.40
2022-11-05T02:46:27.504Z,11.00
2022-11-05T02:48:58.978Z,11.63
2022-11-05T02:51:33.682Z,12.80
2022-11-05T02:54:07.174Z,9.57
2022-11-05T02:56:36.790Z,12.05
2022-11-05T02:59:03.313Z,10.30
2022-11-05T03:01:30.106Z,9.77
2022-11-05T03:03:59.900Z,9.38
2022-11-05T03:06:43.326Z,10.87
2022-11-05T03:09:28.852Z,12.10
2022-11-05T03:12:07.994Z,12.13
2022-11-05T03:14:43.755Z,10.18
2022-11-05T03:17:16.664Z,11.05
2022-11-05T03:19:49.449Z,12.10
2022-11-05T03:22:21.767Z,10.25
2022-11-05T03:24:53.103Z,10.23
2022-11-05T03:27:23.313Z,11.52
2022-11-05T03:29:56.026Z,10.25
2022-11-05T03:32:24.579Z,11.83
2022-11-05T03:34:59.868Z,11.85
2022-11-05T03:37:29.615Z,11.23
2022-11-05T03:39:59.562Z,11.05
2022-11-05T03:42:29.980Z,13.18
2022-11-05T03:44:59.690Z,9.83
2022-11-05T03:47:32.353Z,10.57
2022-11-05T03:50:07.870Z,12.43
2022-11-05T03:52:41.794Z,11.65
2022-11-05T03:55:08.542Z,14.45
2022-11-05T03:57:39.287Z,11.57
2022-11-05T04:00:08.210Z,13.70
2022-11-05T04:02:34.864Z,12.93
2022-11-05T04:05:03.521Z,15.93
2022-11-05T04:07:30.045Z,12.07
2022-11-05T04:09:57.027Z,12.17
2022-11-05T04:12:23.808Z,12.63
2022-11-05T04:14:50.467Z,13.25
2022-11-05T04:17:17.011Z,12.88
2022-11-05T04:19:45.067Z,13.77
2022-11-05T04:22:13.118Z,11.93
2022-11-05T04:24:39.637Z,12.27
2022-11-05T04:27:06.311Z,13.20
2022-11-05T04:29:32.825Z,10.85
2022-11-05T04:31:59.366Z,11.35
2022-11-05T04:34:26.045Z,11.23
2022-11-05T04:36:52.778Z,11.05
2022-11-05T04:39:21.224Z,12.70
2022-11-05T04:41:48.110Z,10.40
2022-11-05T04:44:15.040Z,11.55
2022-11-05T04:46:41.594Z,10.60
2022-11-05T04:49:08.268Z,11.40
2022-11-05T04:51:34.791Z,11.15
2022-11-05T04:54:01.350Z,12.00
2022-11-05T04:56:29.205Z,13.27
2022-11-05T04:58:55.887Z,10.70
2022-11-05T05:01:23.941Z,13.40
2022-11-05T05:03:51.984Z,11.93
2022-11-05T05:06:18.877Z,10.50
2022-11-05T05:08:46.705Z,11.13
2022-11-05T05:11:15.004Z,11.80
2022-11-05T05:13:43.260Z,11.77
2022-11-05T05:16:18.374Z,14.75
2022-11-05T05:18:46.465Z,13.95
2022-11-05T05:21:13.338Z,12.60
2022-11-05T05:23:39.822Z,14.03
2022-11-05T05:26:06.437Z,14.27
2022-11-05T05:28:33.234Z,14.13
2022-11-05T05:31:01.349Z,12.90
2022-11-05T05:33:28.548Z,10.27
2022-11-05T05:35:57.710Z,13.03
2022-11-05T05:38:24.534Z,11.25
2022-11-05T05:40:51.152Z,11.55
2022-11-05T05:43:18.009Z,11.77
2022-11-05T05:45:44.539Z,11.00
2022-11-05T05:48:12.558Z,12.23
2022-11-05T05:50:39.072Z,11.88
2022-11-05T05:53:05.619Z,11.52
2022-11-05T05:55:32.287Z,13.88
2022-11-05T05:57:58.940Z,12.68
2022-11-05T06:00:25.481Z,12.37
2022-11-05T06:02:52.069Z,14.68
2022-11-05T06:05:20.018Z,15.15
2022-11-05T06:07:46.554Z,15.88
2022-11-05T06:10:13.265Z,14.98
2022-11-05T06:12:39.849Z,13.83
2022-11-05T06:15:07.081Z,13.48
2022-11-05T06:17:33.608Z,13.07
2022-11-05T06:20:00.270Z,15.55
2022-11-05T06:22:28.165Z,15.27
2022-11-05T06:24:54.674Z,15.37
2022-11-05T06:27:21.227Z,14.77
2022-11-05T06:29:47.786Z,14.98
2022-11-05T06:32:14.488Z,14.25
2022-11-05T06:34:41.015Z,16.58
2022-11-05T06:37:07.557Z,15.17
2022-11-05T06:39:35.427Z,12.43
2022-11-05T06:42:17.840Z,14.50
2022-11-05T06:44:45.151Z,17.48
2022-11-05T06:47:11.667Z,16.70
2022-11-05T06:49:38.386Z,17.40
2022-11-05T06:52:04.960Z,14.90
2022-11-05T06:54:31.621Z,14.20
2022-11-05T06:56:59.503Z,13.55
2022-11-05T06:59:26.024Z,13.75
2022-11-05T07:01:52.581Z,14.50
2022-11-05T07:04:19.152Z,14.98
2022-11-05T07:06:45.660Z,14.65
2022-11-05T07:09:12.218Z,15.05
2022-11-05T07:11:38.819Z,14.70
2022-11-05T07:14:06.746Z,16.67
2022-11-05T07:16:33.326Z,21.25
2022-11-05T07:18:59.858Z,20.35
2022-11-05T07:21:26.520Z,20.05
2022-11-05T07:23:53.006Z,19.17
2022-11-05T07:26:19.571Z,17.57
2022-11-05T07:28:46.101Z,20.50
2022-11-05T07:31:13.967Z,17.67
2022-11-05T07:33:40.519Z,18.83
2022-11-05T07:36:07.817Z,19.55
2022-11-05T07:38:34.409Z,23.87
2022-11-05T07:41:01.149Z,23.52
2022-11-05T07:43:27.826Z,23.48
2022-11-05T07:45:54.424Z,27.63
2022-11-05T07:48:22.279Z,36.55
2022-11-05T07:50:51.467Z,31.90
2022-11-05T07:53:18.141Z,24.95
2022-11-05T07:55:44.702Z,23.25
2022-11-05T07:58:11.965Z,19.88
2022-11-05T08:00:38.788Z,19.55
2022-11-05T08:03:08.915Z,20.23
2022-11-05T08:05:39.032Z,17.75
2022-11-05T08:08:07.738Z,18.33
2022-11-05T08:10:35.056Z,20.20
2022-11-05T08:13:01.969Z,17.42
2022-11-05T08:15:29.005Z,18.70
2022-11-05T08:17:59.045Z,15.13
2022-11-05T08:20:25.652Z,15.77
2022-11-05T08:22:53.613Z,16.33
2022-11-05T08:25:20.348Z,14.32
2022-11-05T08:27:46.880Z,14.03
2022-11-05T08:30:13.616Z,14.20
2022-11-05T08:32:40.272Z,16.95
2022-11-05T08:35:07.487Z,16.67
2022-11-05T08:37:33.977Z,14.43
2022-11-05T08:40:01.870Z,12.67
2022-11-05T08:42:28.500Z,15.93
2022-11-05T08:44:55.037Z,14.38
2022-11-05T08:47:21.607Z,13.07
2022-11-05T08:49:48.149Z,14.35
2022-11-05T08:52:14.825Z,11.97
2022-11-05T08:54:41.354Z,10.98
2022-11-05T08:57:09.340Z,11.73
2022-11-05T08:59:35.871Z,10.02
2022-11-05T09:02:02.482Z,13.32
2022-11-05T09:04:29.088Z,10.10
2022-11-05T09:06:55.698Z,8.90
2022-11-05T09:09:22.211Z,10.10
2022-11-05T09:12:13.152Z,10.30
2022-11-05T09:14:36.570Z,12.55
2022-11-05T09:17:03.214Z,10.73
2022-11-05T09:19:29.738Z,8.45
2022-11-05T09:21:56.406Z,8.82
2022-11-05T09:24:22.940Z,9.00
2022-11-05T09:26:49.469Z,12.80
2022-11-05T09:29:16.146Z,9.40
2022-11-05T09:31:44.166Z,10.98
2022-11-05T09:34:10.817Z,8.73
2022-11-05T09:36:37.340Z,8.55
2022-11-05T09:39:04.045Z,8.73
2022-11-05T09:41:35.375Z,11.40
2022-11-05T09:44:05.893Z,9.75
2022-11-05T09:46:43.489Z,9.40
2022-11-05T09:49:22.959Z,9.75
2022-11-05T09:51:49.552Z,8.70
2022-11-05T09:54:16.224Z,11.57
2022-11-05T09:56:43.064Z,9.23
2022-11-05T09:59:17.864Z,9.80
2022-11-05T10:01:45.613Z,8.85
2022-11-05T10:04:18.160Z,9.90
2022-11-05T10:06:49.196Z,9.67
2022-11-05T10:09:22.399Z,10.68
2022-11-05T10:11:54.909Z,11.88
2022-11-05T10:14:24.440Z,8.75
2022-11-05T10:16:54.864Z,8.70
2022-11-05T10:19:25.373Z,7.63
2022-11-05T10:22:11.227Z,10.35
2022-11-05T10:24:42.409Z,8.77
2022-11-05T10:27:14.421Z,8.68
2022-11-05T10:29:43.539Z,7.57
2022-11-05T10:32:15.015Z,8.73
2022-11-05T10:34:43.673Z,10.65
2022-11-05T10:37:10.615Z,7.85
2022-11-05T10:39:37.305Z,9.00
2022-11-05T10:42:33.860Z,10.13
2022-11-05T10:45:09.650Z,12.27
2022-11-05T10:47:48.321Z,9.27
2022-11-05T10:50:19.814Z,9.38
2022-11-05T10:52:55.525Z,8.63
2022-11-05T10:55:25.880Z,8.65
2022-11-05T10:57:52.616Z,11.90
2022-11-05T11:00:24.893Z,9.57
2022-11-05T11:02:53.785Z,8.75
2022-11-05T11:05:25.722Z,8.40
2022-11-05T11:07:59.000Z,11.32
2022-11-05T11:10:26.688Z,9.07
2022-11-05T11:12:53.924Z,9.35
2022-11-05T11:15:26.690Z,10.15
2022-11-05T11:17:53.897Z,9.88
2022-11-05T11:20:28.093Z,30.45
2022-11-05T11:23:00.753Z,34.93
2022-11-05T11:25:29.319Z,18.17
2022-11-05T11:28:00.526Z,11.43
2022-11-05T11:30:27.199Z,8.93
2022-11-05T11:32:59.726Z,9.63
2022-11-05T11:35:27.665Z,7.83
2022-11-05T11:37:56.870Z,7.88
2022-11-05T11:40:30.928Z,7.45
2022-11-05T11:43:02.950Z,8.50
2022-11-05T11:45:33.092Z,9.38
2022-11-05T11:48:02.279Z,8.87
2022-11-05T11:50:39.427Z,8.45
2022-11-05T11:53:26.804Z,10.23
2022-11-05T11:56:05.460Z,8.02
2022-11-05T11:58:38.870Z,8.23
2022-11-05T12:01:34.468Z,10.07
2022-11-05T12:04:14.387Z,8.88
2022-11-05T12:06:50.270Z,9.00
2022-11-05T12:09:23.621Z,9.30
2022-11-05T12:12:00.254Z,9.55
2022-11-05T12:14:36.199Z,8.83
2022-11-05T12:17:19.766Z,8.82
2022-11-05T12:20:09.170Z,8.43
2022-11-05T12:22:55.776Z,8.18
2022-11-05T12:25:29.198Z,8.60
2022-11-05T12:28:22.146Z,8.20
2022-11-05T12:30:54.631Z,8.75
2022-11-05T12:33:27.540Z,8.77
2022-11-05T12:36:06.984Z,8.35
2022-11-05T12:39:03.852Z,8.50
2022-11-05T12:41:37.639Z,9.30
2022-11-05T12:44:20.686Z,8.32
2022-11-05T12:46:59.164Z,8.38
2022-11-05T12:49:47.591Z,9.82
2022-11-05T12:52:27.013Z,9.98
2022-11-05T12:55:02.198Z,9.70
2022-11-05T12:57:31.736Z,9.35
2022-11-05T13:00:04.728Z,8.55
2022-11-05T13:02:37.669Z,7.80
2022-11-05T13:05:12.047Z,9.23
2022-11-05T13:07:44.885Z,9.70
2022-11-05T13:10:25.313Z,9.07
2022-11-05T13:12:59.367Z,9.30
2022-11-05T13:15:29.600Z,9.60
2022-11-05T13:17:58.939Z,10.18
2022-11-05T13:20:29.204Z,8.17
2022-11-05T13:23:02.151Z,9.57
2022-11-05T13:25:32.065Z,9.25
2022-11-05T13:28:05.033Z,7.55
2022-11-05T13:30:36.091Z,9.60
2022-11-05T13:33:05.760Z,9.53
2022-11-05T13:35:40.647Z,8.73
2022-11-05T13:38:15.342Z,9.98
2022-11-05T13:40:58.140Z,8.68
2022-11-05T13:43:36.027Z,10.30
2022-11-05T13:46:23.715Z,11.20
2022-11-05T13:49:17.708Z,8.55
2022-11-05T13:51:53.878Z,8.20
2022-11-05T13:54:48.631Z,8.32
2022-11-05T13:57:36.458Z,8.18
2022-11-05T14:00:10.290Z,8.97
2022-11-05T14:02:40.318Z,9.68
2022-11-05T14:05:17.243Z,8.90
2022-11-05T14:07:46.274Z,8.00
2022-11-05T14:10:24.575Z,7.35
2022-11-05T14:12:55.359Z,7.03
2022-11-05T14:15:25.692Z,10.40
2022-11-05T14:17:59.031Z,10.32
2022-11-05T14:20:44.856Z,8.57
2022-11-05T14:23:49.146Z,14.30
2022-11-05T14:26:21.674Z,8.00
2022-11-05T14:29:23.042Z,10.43
2022-11-05T14:32:09.486Z,13.40
2022-11-05T14:34:42.197Z,10.45
2022-11-05T14:37:33.190Z,6.97
2022-11-05T14:40:29.325Z,7.30
2022-11-05T14:42:58.169Z,6.35
2022-11-05T14:45:29.865Z,6.35
2022-11-05T14:47:58.768Z,6.63
2022-11-05T14:50:34.575Z,6.78
2022-11-05T14:53:09.570Z,6.90
2022-11-05T14:55:39.700Z,7.30
2022-11-05T14:58:25.976Z,8.32
2022-11-05T15:00:55.091Z,6.65
2022-11-05T15:03:46.840Z,6.30
2022-11-05T15:06:26.738Z,6.70
2022-11-05T15:09:21.535Z,11.13
2022-11-05T15:12:13.701Z,7.97
2022-11-05T15:14:54.136Z,6.30
2022-11-05T15:17:26.086Z,8.55
2022-11-05T15:19:53.333Z,8.17
2022-11-05T15:22:29.539Z,7.32
2022-11-05T15:24:56.355Z,7.40
2022-11-05T15:27:37.810Z,8.77
2022-11-05T15:30:13.732Z,7.78
2022-11-05T15:32:41.895Z,7.63
2022-11-05T15:35:18.791Z,9.57
2022-11-05T15:37:52.356Z,8.95
2022-11-05T15:40:24.141Z,9.57
2022-11-05T15:43:13.905Z,12.13
2022-11-05T15:45:40.814Z,7.97
2022-11-05T15:48:19.799Z,7.90
2022-11-05T15:50:46.446Z,10.27
2022-11-05T15:53:47.343Z,8.20
2022-11-05T15:56:23.577Z,11.23
2022-11-05T15:58:53.134Z,9.63
2022-11-05T16:01:22.606Z,8.45
2022-11-05T16:03:57.062Z,11.57
2022-11-05T16:06:28.265Z,9.48
2022-11-05T16:08:54.878Z,9.82
2022-11-05T16:11:25.668Z,9.80
2022-11-05T16:13:53.854Z,9.60
2022-11-05T16:16:33.057Z,9.10
2022-11-05T16:19:01.104Z,8.77
2022-11-05T16:21:27.648Z,9.23
2022-11-05T16:23:55.890Z,7.13
2022-11-05T16:26:55.831Z,7.85
2022-11-05T16:29:18.274Z,11.45
2022-11-05T16:31:49.691Z,9.30
2022-11-05T16:34:26.424Z,10.48
2022-11-05T16:36:55.150Z,8.67
2022-11-05T16:39:21.659Z,13.43
2022-11-05T16:41:48.190Z,12.75
2022-11-05T16:44:15.045Z,14.82
2022-11-05T16:46:44.069Z,13.45
2022-11-05T16:49:11.934Z,13.40
2022-11-05T16:51:39.816Z,15.48
2022-11-05T16:54:06.356Z,12.32
2022-11-05T16:56:33.363Z,13.45
2022-11-05T16:59:00.066Z,14.23
2022-11-05T17:01:26.674Z,12.20
2022-11-05T17:03:53.625Z,15.38
2022-11-05T17:06:21.382Z,12.75
2022-11-05T17:08:49.361Z,11.00
2022-11-05T17:11:18.322Z,8.73
2022-11-05T17:13:45.391Z,10.77
2022-11-05T17:16:13.471Z,11.60
2022-11-05T17:18:41.058Z,10.60
2022-11-05T17:21:08.660Z,10.68
2022-11-05T17:23:35.966Z,9.75
2022-11-05T17:26:06.140Z,7.17
2022-11-05T17:28:33.259Z,7.60
2022-11-05T17:31:01.384Z,8.40
2022-11-05T17:33:28.633Z,7.47
2022-11-05T17:35:55.841Z,12.10
2022-11-05T17:38:24.196Z,9.47
2022-11-05T17:40:50.843Z,9.02
2022-11-05T17:43:19.797Z,9.98
2022-11-05T17:45:48.207Z,9.15
2022-11-05T17:48:15.567Z,8.82
2022-11-05T17:50:43.595Z,7.00
2022-11-05T17:53:10.997Z,7.88
2022-11-05T17:55:40.198Z,6.82
2022-11-05T17:58:06.910Z,9.18
2022-11-05T18:00:35.166Z,6.72
2022-11-05T18:03:01.704Z,8.97
2022-11-05T18:05:28.247Z,9.00
2022-11-05T18:07:55.246Z,9.15
2022-11-05T18:10:22.380Z,8.82
2022-11-05T18:12:49.897Z,8.02
2022-11-05T18:15:17.117Z,10.53
2022-11-05T18:17:45.141Z,8.23
2022-11-05T18:20:18.587Z,9.52
2022-11-05T18:22:48.092Z,7.93
2022-11-05T18:25:14.670Z,11.02
2022-11-05T18:27:41.813Z,8.80
2022-11-05T18:30:10.185Z,8.05
2022-11-05T18:32:37.006Z,9.73
2022-11-05T18:35:05.765Z,9.80
2022-11-05T18:37:32.287Z,7.28
2022-11-05T18:39:59.607Z,7.03
2022-11-05T18:42:26.207Z,7.90
2022-11-05T18:44:52.756Z,7.82
2022-11-05T18:47:19.538Z,7.13
2022-11-05T18:49:46.064Z,7.65
2022-11-05T18:52:13.947Z,7.07
2022-11-05T18:54:40.953Z,6.60
2022-11-05T18:57:07.623Z,8.10
2022-11-05T18:59:38.145Z,7.03
2022-11-05T19:02:05.893Z,8.00
2022-11-05T19:04:32.693Z,7.40
2022-11-05T19:07:04.462Z,8.25
2022-11-05T19:09:32.965Z,8.18
2022-11-05T19:11:59.541Z,9.10
2022-11-05T19:14:26.166Z,8.55
2022-11-05T19:16:52.705Z,10.53
2022-11-05T19:19:19.260Z,10.80
2022-11-05T19:21:45.977Z,8.18
2022-11-05T19:24:16.768Z,10.27
2022-11-05T19:26:45.043Z,7.07
2022-11-05T19:29:11.601Z,9.07
2022-11-05T19:31:38.512Z,11.85
2022-11-05T19:34:05.497Z,7.63
2022-11-05T19:36:33.482Z,7.35
2022-11-05T19:39:02.525Z,6.90
2022-11-05T19:41:29.329Z,7.27
2022-11-05T19:43:57.270Z,9.10
2022-11-05T19:46:24.882Z,6.70
2022-11-05T19:48:51.918Z,8.35
2022-11-05T19:51:20.572Z,7.90
2022-11-05T19:53:47.235Z,8.40
2022-11-05T19:56:15.787Z,8.85
2022-11-05T19:58:42.794Z,8.30
2022-11-05T20:01:12.828Z,6.80
2022-11-05T20:03:40.936Z,6.82
2022-11-05T20:06:10.051Z,6.90
2022-11-05T20:08:53.436Z,8.82
2022-11-05T20:11:24.296Z,7.97
2022-11-05T20:13:50.990Z,7.55
2022-11-05T20:16:23.824Z,7.80
2022-11-05T20:18:50.778Z,11.00
2022-11-05T20:21:17.667Z,9.00
2022-11-05T20:23:44.778Z,11.15
2022-11-05T20:26:12.325Z,7.90
2022-11-05T20:28:39.654Z,9.45
2022-11-05T20:31:07.658Z,10.43
2022-11-05T20:33:35.562Z,9.23
2022-11-05T20:36:04.707Z,9.20
2022-11-05T20:38:31.318Z,10.82
2022-11-05T20:40:57.811Z,11.98
2022-11-05T20:43:29.188Z,8.40
2022-11-05T20:45:57.915Z,8.05
2022-11-05T20:48:24.452Z,6.93
2022-11-05T20:50:52.405Z,9.10
2022-11-05T20:53:18.936Z,8.40
2022-11-05T20:55:47.338Z,9.23
2022-11-05T20:58:15.830Z,7.22
2022-11-05T21:00:48.770Z,9.18
2022-11-05T21:03:15.277Z,7.65
2022-11-05T21:05:45.203Z,8.45
2022-11-05T21:08:13.951Z,7.10
2022-11-05T21:10:42.560Z,8.23
2022-11-05T21:13:11.494Z,9.13
2022-11-05T21:15:38.012Z,8.32
2022-11-05T21:18:05.045Z,9.52
2022-11-05T21:20:31.706Z,8.23
2022-11-05T21:22:58.209Z,8.48
2022-11-05T21:25:26.294Z,9.80
2022-11-05T21:27:52.846Z,9.88
2022-11-05T21:30:19.374Z,9.77
2022-11-05T21:32:45.920Z,10.87
2022-11-05T21:35:12.447Z,9.23
2022-11-05T21:37:38.955Z,8.70
2022-11-05T21:40:06.332Z,10.43
2022-11-05T21:42:34.150Z,11.07
2022-11-05T21:45:00.889Z,9.93
2022-11-05T21:47:27.813Z,9.52
2022-11-05T21:49:54.342Z,9.63
2022-11-05T21:52:20.899Z,9.85
2022-11-05T21:54:47.583Z,9.98
2022-11-05T21:57:15.635Z,10.50
2022-11-05T21:59:43.587Z,10.57
2022-11-05T22:02:12.156Z,9.32
2022-11-05T22:04:40.269Z,10.80
2022-11-05T22:07:08.741Z,27.63
2022-11-05T22:09:35.733Z,15.90
2022-11-05T22:12:02.769Z,15.65
2022-11-05T22:14:29.959Z,18.85
2022-11-05T22:16:58.358Z,14.13
2022-11-05T22:19:25.569Z,34.78
2022-11-05T22:21:52.817Z,18.87
2022-11-05T22:24:19.740Z,16.63
2022-11-05T22:26:46.679Z,12.18
2022-11-05T22:29:13.661Z,14.52
2022-11-05T22:31:40.549Z,12.73
2022-11-05T22:34:12.913Z,16.10
2022-11-05T22:36:39.660Z,23.05
2022-11-05T22:39:06.242Z,17.25
2022-11-05T22:41:32.955Z,15.30
2022-11-05T22:43:59.549Z,13.05
2022-11-05T22:46:27.070Z,16.50
2022-11-05T22:48:53.622Z,13.93
2022-11-05T22:51:23.212Z,14.35
2022-11-05T22:53:49.972Z,15.95
2022-11-05T22:56:18.049Z,13.88
2022-11-05T22:58:44.762Z,14.20
2022-11-05T23:01:12.581Z,12.88
2022-11-05T23:03:40.831Z,14.52
2022-11-05T23:06:12.035Z,13.35
2022-11-05T23:08:39.888Z,14.65
2022-11-05T23:11:14.284Z,11.87
2022-11-05T23:13:40.821Z,12.68
2022-11-05T23:16:07.790Z,11.88
2022-11-05T23:18:34.304Z,10.65
2022-11-05T23:21:00.975Z,13.30
2022-11-05T23:23:27.562Z,13.07
2022-11-05T23:25:57.881Z,11.70
2022-11-05T23:28:24.702Z,12.73
2022-11-05T23:30:51.246Z,13.77
2022-11-05T23:33:17.744Z,16.67
2022-11-05T23:35:44.246Z,11.87
2022-11-05T23:38:11.000Z,14.27
2022-11-05T23:40:37.945Z,16.02
2022-11-05T23:43:05.802Z,13.05
2022-11-05T23:45:33.285Z,18.40
2022-11-05T23:48:06.077Z,15.37
2022-11-05T23:50:37.156Z,12.52
2022-11-05T23:53:05.963Z,13.73
2022-11-05T23:55:32.501Z,13.57
2022-11-05T23:57:59.028Z,13.82
